THY5SC LDDU-LTFM
Flight info
| Callsign | THY5SC |
|---|---|
| Flight time | 1h 29m |
| Altitude | 33000 |
| Route | MOKUN1W/11 MOKUN L187 LASTI L607 PETAK DCT MAVAR DCT VELBA P127 PDV N739 ROVDO P127 AYTEK |
| Aircraft | A20N/M-SDE2E3FGHIRWXY/LB1 |
Departure
| Time | 2026-02-17 09:38 |
|---|---|
| Airport | Dubrovnik Ruđer Bošković Airport (LDDU) |
Arrival
| Time | 2026-02-17 11:08 |
|---|---|
| Airport | İstanbul Airport (LTFM) |
| Time | Latitude | Longitude | Altitude | Speed | Heading |
|---|---|---|---|---|---|
| 2026-02-17 09:14 | 42.56085 | 18.26300 | 534 ft | 0 kts | 208° |
| 2026-02-17 09:26 | 42.56086 | 18.26301 | 534 ft | 1 kts | 208° |
| 2026-02-17 09:26 | 42.56099 | 18.26311 | 534 ft | 3 kts | 216° |
| 2026-02-17 09:27 | 42.56125 | 18.26352 | 534 ft | 3 kts | 256° |
| 2026-02-17 09:27 | 42.56126 | 18.26377 | 534 ft | 2 kts | 290° |
| 2026-02-17 09:27 | 42.56124 | 18.26386 | 534 ft | 0 kts | 298° |
| 2026-02-17 09:31 | 42.56150 | 18.26320 | 534 ft | 10 kts | 298° |
| 2026-02-17 09:31 | 42.56188 | 18.26224 | 534 ft | 13 kts | 298° |
| 2026-02-17 09:31 | 42.56234 | 18.26104 | 534 ft | 15 kts | 298° |
| 2026-02-17 09:31 | 42.56288 | 18.25967 | 534 ft | 17 kts | 298° |
| 2026-02-17 09:32 | 42.56346 | 18.25816 | 534 ft | 18 kts | 297° |
| 2026-02-17 09:32 | 42.56362 | 18.25790 | 534 ft | 1 kts | 304° |
| 2026-02-17 09:32 | 42.56371 | 18.25767 | 534 ft | 4 kts | 300° |
| 2026-02-17 09:32 | 42.56389 | 18.25719 | 534 ft | 7 kts | 291° |
| 2026-02-17 09:33 | 42.56408 | 18.25660 | 534 ft | 0 kts | 307° |
| 2026-02-17 09:33 | 42.56415 | 18.25648 | 534 ft | 3 kts | 308° |
| 2026-02-17 09:33 | 42.56432 | 18.25613 | 534 ft | 6 kts | 298° |
| 2026-02-17 09:33 | 42.56457 | 18.25552 | 534 ft | 9 kts | 298° |
| 2026-02-17 09:34 | 42.56490 | 18.25466 | 534 ft | 12 kts | 298° |
| 2026-02-17 09:34 | 42.56532 | 18.25359 | 533 ft | 14 kts | 297° |
| 2026-02-17 09:34 | 42.56581 | 18.25231 | 533 ft | 15 kts | 297° |
| 2026-02-17 09:35 | 42.56646 | 18.25072 | 533 ft | 2 kts | 310° |
| 2026-02-17 09:35 | 42.56674 | 18.25014 | 533 ft | 10 kts | 310° |
| 2026-02-17 09:35 | 42.56694 | 18.24940 | 533 ft | 9 kts | 300° |
| 2026-02-17 09:35 | 42.56729 | 18.24858 | 533 ft | 12 kts | 290° |
| 2026-02-17 09:36 | 42.56771 | 18.24756 | 533 ft | 12 kts | 305° |
| 2026-02-17 09:36 | 42.56822 | 18.24675 | 533 ft | 12 kts | 323° |
| 2026-02-17 09:36 | 42.56869 | 18.24676 | 533 ft | 7 kts | 12° |
| 2026-02-17 09:36 | 42.56911 | 18.24707 | 533 ft | 7 kts | 49° |
| 2026-02-17 09:37 | 42.56945 | 18.24766 | 533 ft | 6 kts | 71° |
| 2026-02-17 09:37 | 42.56944 | 18.24792 | 533 ft | 1 kts | 118° |
| 2026-02-17 09:37 | 42.56873 | 18.24955 | 533 ft | 50 kts | 110° |
| 2026-02-17 09:37 | 42.56694 | 18.25622 | 534 ft | 100 kts | 122° |
| 2026-02-17 09:38 | 42.56242 | 18.26579 | 534 ft | 141 kts | 122° |
| 2026-02-17 09:38 | 42.55713 | 18.27742 | 985 ft | 137 kts | 116° |
| 2026-02-17 09:38 | 42.55190 | 18.28851 | 1391 ft | 143 kts | 110° |
| 2026-02-17 09:39 | 42.54226 | 18.31592 | 1958 ft | 178 kts | 110° |
| 2026-02-17 09:39 | 42.53631 | 18.33177 | 2098 ft | 203 kts | 116° |
| 2026-02-17 09:39 | 42.52560 | 18.34552 | 2318 ft | 232 kts | 150° |
| 2026-02-17 09:39 | 42.50909 | 18.35024 | 2603 ft | 258 kts | 181° |
| 2026-02-17 09:40 | 42.49149 | 18.34302 | 2871 ft | 275 kts | 212° |
| 2026-02-17 09:40 | 42.47587 | 18.32685 | 3332 ft | 282 kts | 219° |
| 2026-02-17 09:40 | 42.45973 | 18.31144 | 3920 ft | 283 kts | 210° |
| 2026-02-17 09:40 | 42.44202 | 18.29956 | 4501 ft | 284 kts | 200° |
| 2026-02-17 09:41 | 42.42355 | 18.29079 | 5139 ft | 285 kts | 195° |
| 2026-02-17 09:41 | 42.40433 | 18.28359 | 5896 ft | 286 kts | 192° |
| 2026-02-17 09:41 | 42.38501 | 18.27713 | 6667 ft | 288 kts | 191° |
| 2026-02-17 09:41 | 42.36540 | 18.27078 | 7568 ft | 291 kts | 192° |
| 2026-02-17 09:42 | 42.34562 | 18.26437 | 8641 ft | 291 kts | 192° |
| 2026-02-17 09:42 | 42.32589 | 18.25792 | 9663 ft | 293 kts | 193° |
| 2026-02-17 09:42 | 42.30636 | 18.25149 | 10469 ft | 301 kts | 194° |
| 2026-02-17 09:43 | 42.26232 | 18.23673 | 11216 ft | 344 kts | 197° |
| 2026-02-17 09:43 | 42.24082 | 18.22230 | 11973 ft | 347 kts | 219° |
| 2026-02-17 09:43 | 42.22481 | 18.19825 | 12830 ft | 347 kts | 241° |
| 2026-02-17 09:43 | 42.21644 | 18.16794 | 13627 ft | 346 kts | 263° |
| 2026-02-17 09:44 | 42.21694 | 18.13566 | 14402 ft | 345 kts | 284° |
| 2026-02-17 09:44 | 42.22612 | 18.10592 | 15159 ft | 346 kts | 304° |
| 2026-02-17 09:44 | 42.24283 | 18.08234 | 15859 ft | 351 kts | 324° |
| 2026-02-17 09:44 | 42.26489 | 18.06827 | 16575 ft | 357 kts | 344° |
| 2026-02-17 09:45 | 42.28952 | 18.06522 | 17239 ft | 365 kts | 4° |
| 2026-02-17 09:45 | 42.31426 | 18.07372 | 17852 ft | 374 kts | 23° |
| 2026-02-17 09:45 | 42.33622 | 18.09331 | 18443 ft | 381 kts | 42° |
| 2026-02-17 09:45 | 42.35265 | 18.12173 | 19022 ft | 388 kts | 61° |
| 2026-02-17 09:46 | 42.36187 | 18.15622 | 19604 ft | 392 kts | 79° |
| 2026-02-17 09:46 | 42.36596 | 18.19276 | 20201 ft | 396 kts | 85° |
| 2026-02-17 09:46 | 42.36648 | 18.21748 | 20598 ft | 397 kts | 95° |
| 2026-02-17 09:47 | 42.35136 | 18.28842 | 21781 ft | 401 kts | 112° |
| 2026-02-17 09:47 | 42.33793 | 18.33518 | 22602 ft | 405 kts | 113° |
| 2026-02-17 09:47 | 42.33122 | 18.35829 | 22972 ft | 407 kts | 113° |
| 2026-02-17 09:47 | 42.32067 | 18.39456 | 23472 ft | 410 kts | 113° |
| 2026-02-17 09:48 | 42.31005 | 18.43094 | 23953 ft | 413 kts | 113° |
| 2026-02-17 09:48 | 42.29959 | 18.46669 | 24412 ft | 416 kts | 113° |
| 2026-02-17 09:48 | 42.28899 | 18.50288 | 24866 ft | 419 kts | 113° |
| 2026-02-17 09:48 | 42.27810 | 18.53999 | 25384 ft | 423 kts | 113° |
| 2026-02-17 09:49 | 42.26719 | 18.57707 | 25837 ft | 426 kts | 113° |
| 2026-02-17 09:49 | 42.25623 | 18.61427 | 26262 ft | 429 kts | 114° |
| 2026-02-17 09:49 | 42.24516 | 18.65184 | 26681 ft | 432 kts | 114° |
| 2026-02-17 09:49 | 42.23404 | 18.68946 | 27090 ft | 435 kts | 114° |
| 2026-02-17 09:50 | 42.22268 | 18.72786 | 27516 ft | 438 kts | 114° |
| 2026-02-17 09:50 | 42.21150 | 18.76560 | 27953 ft | 440 kts | 114° |
| 2026-02-17 09:50 | 42.20009 | 18.80405 | 28325 ft | 443 kts | 114° |
| 2026-02-17 09:51 | 42.17695 | 18.88182 | 29010 ft | 448 kts | 114° |
| 2026-02-17 09:51 | 42.16542 | 18.92053 | 29345 ft | 451 kts | 115° |
| 2026-02-17 09:51 | 42.15369 | 18.95984 | 29619 ft | 455 kts | 115° |
| 2026-02-17 09:51 | 42.14178 | 18.99962 | 29851 ft | 459 kts | 115° |
| 2026-02-17 09:52 | 42.12979 | 19.03962 | 30099 ft | 462 kts | 115° |
| 2026-02-17 09:52 | 42.11766 | 19.08002 | 30336 ft | 466 kts | 114° |
| 2026-02-17 09:52 | 42.10543 | 19.12066 | 30630 ft | 469 kts | 114° |
| 2026-02-17 09:52 | 42.09309 | 19.16163 | 30946 ft | 471 kts | 114° |
| 2026-02-17 09:53 | 42.08072 | 19.20266 | 31273 ft | 473 kts | 114° |
| 2026-02-17 09:53 | 42.06861 | 19.24272 | 31592 ft | 474 kts | 114° |
| 2026-02-17 09:53 | 42.05604 | 19.28428 | 31922 ft | 475 kts | 114° |
| 2026-02-17 09:53 | 42.04357 | 19.32544 | 32246 ft | 476 kts | 114° |
| 2026-02-17 09:54 | 42.03095 | 19.36703 | 32375 ft | 477 kts | 114° |
| 2026-02-17 09:54 | 42.00590 | 19.44945 | 32382 ft | 474 kts | 114° |
| 2026-02-17 09:55 | 41.96843 | 19.57219 | 32385 ft | 474 kts | 114° |
| 2026-02-17 09:55 | 41.94348 | 19.65361 | 32397 ft | 474 kts | 114° |
| 2026-02-17 09:56 | 41.91864 | 19.73439 | 32397 ft | 473 kts | 114° |
| 2026-02-17 09:56 | 41.89350 | 19.81595 | 32402 ft | 472 kts | 114° |
| 2026-02-17 09:57 | 41.86853 | 19.89666 | 32405 ft | 471 kts | 114° |
| 2026-02-17 09:57 | 41.84309 | 19.97867 | 32410 ft | 471 kts | 115° |
| 2026-02-17 09:58 | 41.81784 | 20.05978 | 32417 ft | 470 kts | 115° |
| 2026-02-17 09:59 | 41.78015 | 20.18043 | 32424 ft | 469 kts | 115° |
| 2026-02-17 09:59 | 41.75482 | 20.26121 | 32429 ft | 469 kts | 115° |
| 2026-02-17 10:00 | 41.72994 | 20.34034 | 32434 ft | 468 kts | 115° |
| 2026-02-17 10:00 | 41.70434 | 20.42145 | 32436 ft | 468 kts | 115° |
| 2026-02-17 10:01 | 41.68110 | 20.50292 | 32439 ft | 471 kts | 105° |
| 2026-02-17 10:01 | 41.67653 | 20.54646 | 32436 ft | 474 kts | 93° |
| 2026-02-17 10:01 | 41.67822 | 20.59049 | 32438 ft | 476 kts | 82° |
| 2026-02-17 10:02 | 41.69012 | 20.67752 | 32442 ft | 476 kts | 81° |
| 2026-02-17 10:02 | 41.70190 | 20.76418 | 32438 ft | 476 kts | 81° |
| 2026-02-17 10:03 | 41.71944 | 20.89501 | 32430 ft | 476 kts | 81° |
| 2026-02-17 10:03 | 41.73106 | 20.98250 | 32440 ft | 476 kts | 81° |
| 2026-02-17 10:04 | 41.74253 | 21.06921 | 32423 ft | 475 kts | 81° |
| 2026-02-17 10:04 | 41.75400 | 21.15653 | 32436 ft | 475 kts | 82° |
| 2026-02-17 10:05 | 41.76543 | 21.24394 | 32430 ft | 475 kts | 82° |
| 2026-02-17 10:05 | 41.77670 | 21.33076 | 32433 ft | 475 kts | 82° |
| 2026-02-17 10:06 | 41.78796 | 21.41797 | 32426 ft | 475 kts | 82° |
| 2026-02-17 10:07 | 41.80471 | 21.54873 | 32437 ft | 475 kts | 82° |
| 2026-02-17 10:07 | 41.81581 | 21.63606 | 32437 ft | 475 kts | 82° |
| 2026-02-17 10:08 | 41.82689 | 21.72385 | 32437 ft | 476 kts | 82° |
| 2026-02-17 10:08 | 41.83786 | 21.81136 | 32441 ft | 475 kts | 82° |
| 2026-02-17 10:09 | 41.84873 | 21.89847 | 32431 ft | 475 kts | 82° |
| 2026-02-17 10:09 | 41.85956 | 21.98588 | 32429 ft | 475 kts | 82° |
| 2026-02-17 10:10 | 41.87032 | 22.07323 | 32428 ft | 476 kts | 82° |
| 2026-02-17 10:10 | 41.88103 | 22.16076 | 32425 ft | 475 kts | 82° |
| 2026-02-17 10:11 | 41.89685 | 22.29127 | 32416 ft | 475 kts | 82° |
| 2026-02-17 10:11 | 41.90751 | 22.37987 | 32427 ft | 475 kts | 82° |
| 2026-02-17 10:12 | 41.91789 | 22.46678 | 32417 ft | 474 kts | 82° |
| 2026-02-17 10:12 | 41.92829 | 22.55434 | 32424 ft | 474 kts | 83° |
| 2026-02-17 10:13 | 41.93862 | 22.64196 | 32411 ft | 474 kts | 83° |
| 2026-02-17 10:13 | 41.94880 | 22.72896 | 32423 ft | 474 kts | 83° |
| 2026-02-17 10:14 | 41.95899 | 22.81655 | 32406 ft | 474 kts | 83° |
| 2026-02-17 10:15 | 41.96984 | 22.94852 | 32412 ft | 472 kts | 88° |
| 2026-02-17 10:15 | 41.97443 | 23.03622 | 32415 ft | 473 kts | 88° |
| 2026-02-17 10:16 | 41.97902 | 23.12468 | 32415 ft | 474 kts | 88° |
| 2026-02-17 10:16 | 41.98342 | 23.21260 | 32423 ft | 474 kts | 88° |
| 2026-02-17 10:17 | 41.98778 | 23.30157 | 32425 ft | 474 kts | 88° |
| 2026-02-17 10:17 | 41.99203 | 23.38959 | 32428 ft | 475 kts | 88° |
| 2026-02-17 10:18 | 41.99622 | 23.47807 | 32440 ft | 475 kts | 88° |
| 2026-02-17 10:18 | 42.00035 | 23.56683 | 32441 ft | 475 kts | 88° |
| 2026-02-17 10:19 | 42.00641 | 23.69931 | 32442 ft | 475 kts | 88° |
| 2026-02-17 10:19 | 42.01039 | 23.78827 | 32449 ft | 474 kts | 88° |
| 2026-02-17 10:20 | 42.01428 | 23.87688 | 32449 ft | 473 kts | 89° |
| 2026-02-17 10:20 | 42.01810 | 23.96529 | 32458 ft | 473 kts | 89° |
| 2026-02-17 10:21 | 42.02181 | 24.05272 | 32453 ft | 473 kts | 89° |
| 2026-02-17 10:21 | 42.02551 | 24.14169 | 32467 ft | 474 kts | 89° |
| 2026-02-17 10:22 | 42.02913 | 24.23035 | 32460 ft | 474 kts | 89° |
| 2026-02-17 10:23 | 42.03441 | 24.36269 | 32467 ft | 474 kts | 89° |
| 2026-02-17 10:23 | 42.03786 | 24.45143 | 32473 ft | 475 kts | 89° |
| 2026-02-17 10:24 | 42.04126 | 24.54027 | 32484 ft | 475 kts | 89° |
| 2026-02-17 10:24 | 42.04456 | 24.62867 | 32492 ft | 475 kts | 89° |
| 2026-02-17 10:25 | 42.04782 | 24.71786 | 32500 ft | 476 kts | 89° |
| 2026-02-17 10:25 | 42.05100 | 24.80647 | 32495 ft | 476 kts | 90° |
| 2026-02-17 10:26 | 42.05134 | 24.89539 | 32498 ft | 472 kts | 98° |
| 2026-02-17 10:26 | 42.04266 | 24.98242 | 32497 ft | 471 kts | 101° |
| 2026-02-17 10:27 | 42.02951 | 25.11358 | 32483 ft | 471 kts | 101° |
| 2026-02-17 10:27 | 42.02065 | 25.20060 | 32490 ft | 471 kts | 101° |
| 2026-02-17 10:28 | 42.01166 | 25.28800 | 32486 ft | 471 kts | 102° |
| 2026-02-17 10:28 | 42.00259 | 25.37548 | 32489 ft | 472 kts | 102° |
| 2026-02-17 10:29 | 41.99157 | 25.46218 | 32484 ft | 468 kts | 109° |
| 2026-02-17 10:29 | 41.97452 | 25.54649 | 32490 ft | 469 kts | 109° |
| 2026-02-17 10:30 | 41.95755 | 25.63117 | 32483 ft | 469 kts | 109° |
| 2026-02-17 10:31 | 41.93201 | 25.75796 | 32490 ft | 470 kts | 110° |
| 2026-02-17 10:31 | 41.91477 | 25.84303 | 32487 ft | 471 kts | 110° |
| 2026-02-17 10:32 | 41.89752 | 25.92784 | 32295 ft | 468 kts | 110° |
| 2026-02-17 10:32 | 41.88905 | 25.96935 | 31766 ft | 466 kts | 110° |
| 2026-02-17 10:32 | 41.88044 | 26.01140 | 31087 ft | 466 kts | 110° |
| 2026-02-17 10:32 | 41.87182 | 26.05340 | 30386 ft | 464 kts | 110° |
| 2026-02-17 10:33 | 41.86327 | 26.09497 | 29723 ft | 463 kts | 110° |
| 2026-02-17 10:33 | 41.85473 | 26.13647 | 29086 ft | 458 kts | 109° |
| 2026-02-17 10:33 | 41.84632 | 26.17733 | 28433 ft | 453 kts | 109° |
| 2026-02-17 10:33 | 41.83805 | 26.21739 | 27795 ft | 449 kts | 109° |
| 2026-02-17 10:34 | 41.82978 | 26.25732 | 27154 ft | 444 kts | 109° |
| 2026-02-17 10:34 | 41.82145 | 26.29743 | 26533 ft | 440 kts | 109° |
| 2026-02-17 10:34 | 41.81599 | 26.32371 | 26130 ft | 437 kts | 109° |
| 2026-02-17 10:35 | 41.79455 | 26.41121 | 25242 ft | 415 kts | 114° |
| 2026-02-17 10:35 | 41.78796 | 26.43522 | 24885 ft | 413 kts | 114° |
| 2026-02-17 10:35 | 41.77809 | 26.47122 | 24330 ft | 410 kts | 114° |
| 2026-02-17 10:35 | 41.76826 | 26.50704 | 23815 ft | 407 kts | 114° |
| 2026-02-17 10:36 | 41.75519 | 26.55388 | 23137 ft | 401 kts | 117° |
| 2026-02-17 10:36 | 41.74720 | 26.57653 | 22735 ft | 397 kts | 122° |
| 2026-02-17 10:36 | 41.73300 | 26.60752 | 22140 ft | 391 kts | 128° |
| 2026-02-17 10:36 | 41.71786 | 26.63778 | 21563 ft | 388 kts | 128° |
| 2026-02-17 10:37 | 41.70304 | 26.66763 | 21003 ft | 385 kts | 127° |
| 2026-02-17 10:37 | 41.68833 | 26.69732 | 20445 ft | 382 kts | 127° |
| 2026-02-17 10:37 | 41.67409 | 26.72607 | 20002 ft | 377 kts | 127° |
| 2026-02-17 10:37 | 41.65929 | 26.75591 | 19722 ft | 378 kts | 128° |
| 2026-02-17 10:38 | 41.64335 | 26.78364 | 19438 ft | 373 kts | 140° |
| 2026-02-17 10:38 | 41.62239 | 26.80311 | 19160 ft | 362 kts | 160° |
| 2026-02-17 10:38 | 41.59847 | 26.81215 | 18884 ft | 354 kts | 174° |
| 2026-02-17 10:39 | 41.55026 | 26.82224 | 18360 ft | 351 kts | 174° |
| 2026-02-17 10:39 | 41.52617 | 26.82739 | 18090 ft | 350 kts | 174° |
| 2026-02-17 10:39 | 41.50268 | 26.83586 | 17814 ft | 354 kts | 159° |
| 2026-02-17 10:39 | 41.48207 | 26.85472 | 17512 ft | 362 kts | 139° |
| 2026-02-17 10:40 | 41.46756 | 26.88183 | 17222 ft | 369 kts | 118° |
| 2026-02-17 10:40 | 41.46045 | 26.91487 | 16928 ft | 374 kts | 101° |
| 2026-02-17 10:40 | 41.45744 | 26.94941 | 16628 ft | 374 kts | 98° |
| 2026-02-17 10:40 | 41.45490 | 26.98393 | 16338 ft | 372 kts | 98° |
| 2026-02-17 10:41 | 41.45233 | 27.01777 | 16053 ft | 371 kts | 99° |
| 2026-02-17 10:41 | 41.44956 | 27.05194 | 15767 ft | 368 kts | 99° |
| 2026-02-17 10:41 | 41.44887 | 27.08646 | 15471 ft | 371 kts | 84° |
| 2026-02-17 10:41 | 41.45618 | 27.11897 | 15189 ft | 374 kts | 64° |
| 2026-02-17 10:42 | 41.47056 | 27.14796 | 14913 ft | 375 kts | 54° |
| 2026-02-17 10:42 | 41.48595 | 27.17591 | 14648 ft | 373 kts | 54° |
| 2026-02-17 10:42 | 41.50124 | 27.20364 | 14375 ft | 371 kts | 54° |
| 2026-02-17 10:43 | 41.53110 | 27.25816 | 13835 ft | 354 kts | 54° |
| 2026-02-17 10:43 | 41.54544 | 27.28447 | 13561 ft | 347 kts | 54° |
| 2026-02-17 10:43 | 41.55947 | 27.31025 | 13296 ft | 340 kts | 54° |
| 2026-02-17 10:43 | 41.57325 | 27.33561 | 12996 ft | 333 kts | 55° |
| 2026-02-17 10:44 | 41.58645 | 27.36035 | 12701 ft | 327 kts | 56° |
| 2026-02-17 10:44 | 41.59938 | 27.38545 | 12540 ft | 325 kts | 57° |
| 2026-02-17 10:44 | 41.61206 | 27.41029 | 12539 ft | 328 kts | 57° |
| 2026-02-17 10:44 | 41.62494 | 27.43546 | 12538 ft | 328 kts | 56° |
| 2026-02-17 10:45 | 41.63783 | 27.46058 | 12543 ft | 328 kts | 56° |
| 2026-02-17 10:45 | 41.65082 | 27.48583 | 12535 ft | 328 kts | 56° |
| 2026-02-17 10:45 | 41.66381 | 27.51105 | 12542 ft | 328 kts | 56° |
| 2026-02-17 10:45 | 41.67660 | 27.53592 | 12544 ft | 328 kts | 56° |
| 2026-02-17 10:46 | 41.68959 | 27.56117 | 12548 ft | 329 kts | 56° |
| 2026-02-17 10:46 | 41.70259 | 27.58648 | 12436 ft | 330 kts | 57° |
| 2026-02-17 10:46 | 41.71558 | 27.61178 | 12287 ft | 328 kts | 56° |
| 2026-02-17 10:47 | 41.74121 | 27.66176 | 11990 ft | 327 kts | 57° |
| 2026-02-17 10:47 | 41.75270 | 27.68805 | 11857 ft | 325 kts | 64° |
| 2026-02-17 10:47 | 41.76323 | 27.71488 | 11742 ft | 325 kts | 64° |
| 2026-02-17 10:47 | 41.77371 | 27.74131 | 11657 ft | 324 kts | 63° |
| 2026-02-17 10:48 | 41.78430 | 27.76802 | 11545 ft | 323 kts | 65° |
| 2026-02-17 10:48 | 41.79061 | 27.79650 | 11442 ft | 317 kts | 90° |
| 2026-02-17 10:48 | 41.78816 | 27.82540 | 11343 ft | 310 kts | 110° |
| 2026-02-17 10:48 | 41.78259 | 27.85298 | 11249 ft | 309 kts | 110° |
| 2026-02-17 10:49 | 41.77696 | 27.88079 | 11149 ft | 309 kts | 110° |
| 2026-02-17 10:49 | 41.77139 | 27.90853 | 11052 ft | 308 kts | 110° |
| 2026-02-17 10:49 | 41.76589 | 27.93616 | 10992 ft | 307 kts | 110° |
| 2026-02-17 10:49 | 41.76081 | 27.96426 | 10991 ft | 310 kts | 104° |
| 2026-02-17 10:50 | 41.75909 | 27.99326 | 10993 ft | 314 kts | 96° |
| 2026-02-17 10:50 | 41.75836 | 28.02213 | 10992 ft | 314 kts | 96° |
| 2026-02-17 10:50 | 41.75753 | 28.05132 | 10999 ft | 313 kts | 96° |
| 2026-02-17 10:51 | 41.75571 | 28.10963 | 11000 ft | 313 kts | 96° |
| 2026-02-17 10:51 | 41.75478 | 28.13879 | 10965 ft | 311 kts | 97° |
| 2026-02-17 10:51 | 41.75414 | 28.16741 | 10900 ft | 304 kts | 92° |
| 2026-02-17 10:51 | 41.75688 | 28.19498 | 10725 ft | 300 kts | 79° |
| 2026-02-17 10:52 | 41.76295 | 28.22172 | 10381 ft | 299 kts | 75° |
| 2026-02-17 10:52 | 41.76919 | 28.24833 | 10019 ft | 298 kts | 75° |
| 2026-02-17 10:52 | 41.77524 | 28.27453 | 9819 ft | 290 kts | 76° |
| 2026-02-17 10:52 | 41.78116 | 28.30039 | 9621 ft | 292 kts | 76° |
| 2026-02-17 10:53 | 41.78709 | 28.32641 | 9453 ft | 291 kts | 76° |
| 2026-02-17 10:53 | 41.79300 | 28.35234 | 9253 ft | 289 kts | 76° |
| 2026-02-17 10:53 | 41.79878 | 28.37776 | 9088 ft | 289 kts | 76° |
| 2026-02-17 10:53 | 41.80466 | 28.40360 | 8904 ft | 288 kts | 76° |
| 2026-02-17 10:54 | 41.81051 | 28.42935 | 8741 ft | 287 kts | 76° |
| 2026-02-17 10:54 | 41.81634 | 28.45503 | 8551 ft | 286 kts | 76° |
| 2026-02-17 10:54 | 41.82207 | 28.48029 | 8380 ft | 286 kts | 76° |
| 2026-02-17 10:55 | 41.83365 | 28.53140 | 8028 ft | 284 kts | 76° |
| 2026-02-17 10:55 | 41.83930 | 28.55638 | 7909 ft | 283 kts | 76° |
| 2026-02-17 10:55 | 41.84499 | 28.58159 | 7796 ft | 280 kts | 76° |
| 2026-02-17 10:55 | 41.85056 | 28.60626 | 7638 ft | 272 kts | 76° |
| 2026-02-17 10:56 | 41.85602 | 28.63042 | 7426 ft | 271 kts | 76° |
| 2026-02-17 10:56 | 41.86113 | 28.65485 | 7220 ft | 269 kts | 85° |
| 2026-02-17 10:56 | 41.86016 | 28.67931 | 7029 ft | 260 kts | 109° |
| 2026-02-17 10:56 | 41.85217 | 28.70017 | 6834 ft | 246 kts | 140° |
| 2026-02-17 10:57 | 41.83862 | 28.71234 | 6645 ft | 234 kts | 165° |
| 2026-02-17 10:57 | 41.82310 | 28.71764 | 6469 ft | 228 kts | 178° |
| 2026-02-17 10:57 | 41.80740 | 28.71936 | 6318 ft | 225 kts | 183° |
| 2026-02-17 10:57 | 41.79177 | 28.71965 | 6169 ft | 224 kts | 185° |
| 2026-02-17 10:58 | 41.77621 | 28.71956 | 6012 ft | 224 kts | 185° |
| 2026-02-17 10:58 | 41.76064 | 28.71950 | 5859 ft | 223 kts | 185° |
| 2026-02-17 10:58 | 41.74512 | 28.71955 | 5738 ft | 223 kts | 185° |
| 2026-02-17 10:59 | 41.71437 | 28.71986 | 5476 ft | 222 kts | 184° |
| 2026-02-17 10:59 | 41.69894 | 28.72005 | 5344 ft | 222 kts | 184° |
| 2026-02-17 10:59 | 41.68350 | 28.72025 | 5201 ft | 221 kts | 184° |
| 2026-02-17 10:59 | 41.66801 | 28.72044 | 5087 ft | 222 kts | 184° |
| 2026-02-17 11:00 | 41.65259 | 28.72063 | 5006 ft | 221 kts | 184° |
| 2026-02-17 11:00 | 41.63721 | 28.72081 | 4993 ft | 222 kts | 184° |
| 2026-02-17 11:00 | 41.62182 | 28.72098 | 5001 ft | 221 kts | 184° |
| 2026-02-17 11:00 | 41.60694 | 28.72108 | 4999 ft | 210 kts | 184° |
| 2026-02-17 11:01 | 41.59278 | 28.72134 | 5002 ft | 197 kts | 184° |
| 2026-02-17 11:01 | 41.57883 | 28.72156 | 5012 ft | 201 kts | 184° |
| 2026-02-17 11:01 | 41.56483 | 28.72184 | 5003 ft | 200 kts | 184° |
| 2026-02-17 11:01 | 41.55086 | 28.72211 | 4920 ft | 201 kts | 184° |
| 2026-02-17 11:02 | 41.53704 | 28.72238 | 4707 ft | 201 kts | 184° |
| 2026-02-17 11:02 | 41.52309 | 28.72267 | 4436 ft | 199 kts | 184° |
| 2026-02-17 11:02 | 41.50919 | 28.72293 | 4160 ft | 199 kts | 184° |
| 2026-02-17 11:03 | 41.48172 | 28.72347 | 3616 ft | 195 kts | 183° |
| 2026-02-17 11:03 | 41.46827 | 28.72374 | 3355 ft | 189 kts | 183° |
| 2026-02-17 11:03 | 41.45553 | 28.72400 | 3106 ft | 181 kts | 183° |
| 2026-02-17 11:03 | 41.44333 | 28.72424 | 2893 ft | 170 kts | 183° |
| 2026-02-17 11:04 | 41.43177 | 28.72446 | 2662 ft | 161 kts | 182° |
| 2026-02-17 11:04 | 41.42080 | 28.72467 | 2440 ft | 154 kts | 183° |
| 2026-02-17 11:04 | 41.41001 | 28.72486 | 2241 ft | 158 kts | 182° |
| 2026-02-17 11:04 | 41.39932 | 28.72510 | 2032 ft | 148 kts | 182° |
| 2026-02-17 11:05 | 41.38918 | 28.72528 | 1825 ft | 147 kts | 182° |
| 2026-02-17 11:05 | 41.37883 | 28.72548 | 1629 ft | 148 kts | 182° |
| 2026-02-17 11:05 | 41.36867 | 28.72569 | 1448 ft | 144 kts | 182° |
| 2026-02-17 11:05 | 41.35897 | 28.72589 | 1243 ft | 136 kts | 183° |
| 2026-02-17 11:06 | 41.34968 | 28.72606 | 1080 ft | 130 kts | 183° |
| 2026-02-17 11:06 | 41.34085 | 28.72623 | 954 ft | 127 kts | 182° |
| 2026-02-17 11:06 | 41.33206 | 28.72640 | 840 ft | 125 kts | 181° |
| 2026-02-17 11:07 | 41.31512 | 28.72673 | 574 ft | 118 kts | 181° |
| 2026-02-17 11:07 | 41.30662 | 28.72696 | 462 ft | 120 kts | 179° |
| 2026-02-17 11:07 | 41.29838 | 28.72708 | 368 ft | 120 kts | 178° |
| 2026-02-17 11:07 | 41.29077 | 28.72733 | 331 ft | 87 kts | 175° |
| 2026-02-17 11:08 | 41.28663 | 28.72756 | 330 ft | 41 kts | 186° |
| 2026-02-17 11:08 | 41.28571 | 28.72739 | 330 ft | 2 kts | 163° |
| 2026-02-17 11:08 | 41.28531 | 28.72743 | 330 ft | 10 kts | 179° |
| 2026-02-17 11:08 | 41.28448 | 28.72743 | 331 ft | 14 kts | 180° |
| 2026-02-17 11:09 | 41.28335 | 28.72743 | 332 ft | 18 kts | 180° |
| 2026-02-17 11:09 | 41.28201 | 28.72735 | 334 ft | 19 kts | 173° |
| 2026-02-17 11:09 | 41.28063 | 28.72744 | 334 ft | 21 kts | 198° |
| 2026-02-17 11:09 | 41.27968 | 28.72755 | 332 ft | 10 kts | 185° |
| 2026-02-17 11:10 | 41.27885 | 28.72763 | 333 ft | 14 kts | 163° |
| 2026-02-17 11:10 | 41.27793 | 28.72825 | 330 ft | 15 kts | 154° |
| 2026-02-17 11:10 | 41.27722 | 28.72880 | 332 ft | 12 kts | 152° |
| 2026-02-17 11:11 | 41.27610 | 28.72961 | 332 ft | 5 kts | 149° |
| 2026-02-17 11:11 | 41.27569 | 28.72970 | 331 ft | 7 kts | 186° |
| 2026-02-17 11:11 | 41.27511 | 28.72965 | 332 ft | 9 kts | 181° |
| 2026-02-17 11:11 | 41.27443 | 28.72971 | 334 ft | 10 kts | 180° |
| 2026-02-17 11:12 | 41.27388 | 28.73014 | 330 ft | 10 kts | 117° |
| 2026-02-17 11:12 | 41.27385 | 28.73119 | 334 ft | 13 kts | 92° |
| 2026-02-17 11:12 | 41.27389 | 28.73233 | 331 ft | 8 kts | 83° |
| 2026-02-17 11:12 | 41.27392 | 28.73246 | 334 ft | 3 kts | 77° |
| 2026-02-17 11:13 | 41.27393 | 28.73287 | 334 ft | 6 kts | 92° |
| 2026-02-17 11:13 | 41.27407 | 28.73316 | 330 ft | 3 kts | 16° |
| 2026-02-17 11:13 | 41.27432 | 28.73310 | 334 ft | 5 kts | 358° |
| 2026-02-17 11:13 | 41.27469 | 28.73311 | 330 ft | 0 kts | 1° |